sensor_id;sensor_type;location;lat;lon;timestamp;temperature;humidity
64888;DHT22;51386;53.082;8.816;2023-08-17T00:02:02;21.20;78.00
64888;DHT22;51386;53.082;8.816;2023-08-17T00:04:29;21.20;78.10
64888;DHT22;51386;53.082;8.816;2023-08-17T00:06:56;21.10;78.00
64888;DHT22;51386;53.082;8.816;2023-08-17T00:09:23;21.10;78.20
64888;DHT22;51386;53.082;8.816;2023-08-17T00:11:51;21.10;78.30
64888;DHT22;51386;53.082;8.816;2023-08-17T00:14:18;21.10;78.40
64888;DHT22;51386;53.082;8.816;2023-08-17T00:16:49;21.00;78.40
64888;DHT22;51386;53.082;8.816;2023-08-17T00:19:16;21.00;78.50
64888;DHT22;51386;53.082;8.816;2023-08-17T00:21:44;21.10;78.50
64888;DHT22;51386;53.082;8.816;2023-08-17T00:24:12;21.10;78.30
64888;DHT22;51386;53.082;8.816;2023-08-17T00:26:39;21.00;78.10
64888;DHT22;51386;53.082;8.816;2023-08-17T00:29:06;21.00;78.20
64888;DHT22;51386;53.082;8.816;2023-08-17T00:31:33;21.00;78.30
64888;DHT22;51386;53.082;8.816;2023-08-17T00:34:01;21.00;78.70
64888;DHT22;51386;53.082;8.816;2023-08-17T00:36:28;21.00;78.70
64888;DHT22;51386;53.082;8.816;2023-08-17T00:38:55;21.10;78.80
64888;DHT22;51386;53.082;8.816;2023-08-17T00:41:22;21.10;78.40
64888;DHT22;51386;53.082;8.816;2023-08-17T00:43:49;21.10;78.20
64888;DHT22;51386;53.082;8.816;2023-08-17T00:46:16;21.20;78.10
64888;DHT22;51386;53.082;8.816;2023-08-17T00:48:44;21.20;78.00
64888;DHT22;51386;53.082;8.816;2023-08-17T00:51:12;21.20;78.00
64888;DHT22;51386;53.082;8.816;2023-08-17T00:53:39;21.10;77.90
64888;DHT22;51386;53.082;8.816;2023-08-17T00:56:07;21.10;78.20
64888;DHT22;51386;53.082;8.816;2023-08-17T00:58:35;21.00;78.20
64888;DHT22;51386;53.082;8.816;2023-08-17T01:01:02;21.00;78.30
64888;DHT22;51386;53.082;8.816;2023-08-17T01:03:29;21.00;78.90
64888;DHT22;51386;53.082;8.816;2023-08-17T01:05:57;20.90;78.50
64888;DHT22;51386;53.082;8.816;2023-08-17T01:08:25;20.90;78.70
64888;DHT22;51386;53.082;8.816;2023-08-17T01:10:59;20.90;79.70
64888;DHT22;51386;53.082;8.816;2023-08-17T01:13:35;20.90;79.00
64888;DHT22;51386;53.082;8.816;2023-08-17T01:16:11;20.90;79.10
64888;DHT22;51386;53.082;8.816;2023-08-17T01:18:42;20.90;79.20
64888;DHT22;51386;53.082;8.816;2023-08-17T01:21:14;20.90;79.10
64888;DHT22;51386;53.082;8.816;2023-08-17T01:23:46;20.90;79.10
64888;DHT22;51386;53.082;8.816;2023-08-17T01:26:16;20.90;79.20
64888;DHT22;51386;53.082;8.816;2023-08-17T01:28:44;20.80;79.10
64888;DHT22;51386;53.082;8.816;2023-08-17T01:31:18;20.80;79.20
64888;DHT22;51386;53.082;8.816;2023-08-17T01:33:54;20.90;79.30
64888;DHT22;51386;53.082;8.816;2023-08-17T01:36:28;20.90;79.30
64888;DHT22;51386;53.082;8.816;2023-08-17T01:39:00;21.00;79.50
64888;DHT22;51386;53.082;8.816;2023-08-17T01:41:29;21.00;79.20
64888;DHT22;51386;53.082;8.816;2023-08-17T01:43:57;21.00;79.00
64888;DHT22;51386;53.082;8.816;2023-08-17T01:46:30;21.00;79.20
64888;DHT22;51386;53.082;8.816;2023-08-17T01:49:01;21.00;78.90
64888;DHT22;51386;53.082;8.816;2023-08-17T01:51:29;21.00;79.00
64888;DHT22;51386;53.082;8.816;2023-08-17T01:53:56;21.00;79.00
64888;DHT22;51386;53.082;8.816;2023-08-17T01:56:24;21.00;79.00
64888;DHT22;51386;53.082;8.816;2023-08-17T01:58:51;21.00;79.00
64888;DHT22;51386;53.082;8.816;2023-08-17T02:01:18;21.00;79.00
64888;DHT22;51386;53.082;8.816;2023-08-17T02:03:45;21.00;79.10
64888;DHT22;51386;53.082;8.816;2023-08-17T02:06:12;20.90;79.00
64888;DHT22;51386;53.082;8.816;2023-08-17T02:08:39;20.90;79.30
64888;DHT22;51386;53.082;8.816;2023-08-17T02:11:07;20.90;79.40
64888;DHT22;51386;53.082;8.816;2023-08-17T02:13:38;20.80;79.50
64888;DHT22;51386;53.082;8.816;2023-08-17T02:16:05;20.80;79.60
64888;DHT22;51386;53.082;8.816;2023-08-17T02:18:32;20.90;80.00
64888;DHT22;51386;53.082;8.816;2023-08-17T02:21:01;20.90;79.90
64888;DHT22;51386;53.082;8.816;2023-08-17T02:23:28;20.90;79.80
64888;DHT22;51386;53.082;8.816;2023-08-17T02:25:55;21.00;79.80
64888;DHT22;51386;53.082;8.816;2023-08-17T02:28:22;21.00;79.40
64888;DHT22;51386;53.082;8.816;2023-08-17T02:30:55;21.00;79.30
64888;DHT22;51386;53.082;8.816;2023-08-17T02:33:22;21.00;79.30
64888;DHT22;51386;53.082;8.816;2023-08-17T02:35:50;21.00;79.20
64888;DHT22;51386;53.082;8.816;2023-08-17T02:38:17;20.90;79.30
64888;DHT22;51386;53.082;8.816;2023-08-17T02:40:45;20.90;79.30
64888;DHT22;51386;53.082;8.816;2023-08-17T02:43:12;20.80;79.40
64888;DHT22;51386;53.082;8.816;2023-08-17T02:45:39;20.80;79.60
64888;DHT22;51386;53.082;8.816;2023-08-17T02:48:07;20.80;79.80
64888;DHT22;51386;53.082;8.816;2023-08-17T02:50:34;20.70;80.00
64888;DHT22;51386;53.082;8.816;2023-08-17T02:53:01;20.70;80.20
64888;DHT22;51386;53.082;8.816;2023-08-17T02:55:29;20.60;80.40
64888;DHT22;51386;53.082;8.816;2023-08-17T02:57:56;20.70;80.50
64888;DHT22;51386;53.082;8.816;2023-08-17T03:00:23;20.70;80.60
64888;DHT22;51386;53.082;8.816;2023-08-17T03:02:50;20.60;80.50
64888;DHT22;51386;53.082;8.816;2023-08-17T03:05:19;20.70;80.70
64888;DHT22;51386;53.082;8.816;2023-08-17T03:07:46;20.60;80.80
64888;DHT22;51386;53.082;8.816;2023-08-17T03:10:13;20.60;80.70
64888;DHT22;51386;53.082;8.816;2023-08-17T03:12:40;20.70;80.90
64888;DHT22;51386;53.082;8.816;2023-08-17T03:15:08;20.70;80.90
64888;DHT22;51386;53.082;8.816;2023-08-17T03:17:35;20.70;81.00
64888;DHT22;51386;53.082;8.816;2023-08-17T03:20:04;20.60;80.90
64888;DHT22;51386;53.082;8.816;2023-08-17T03:22:35;20.70;81.20
64888;DHT22;51386;53.082;8.816;2023-08-17T03:25:02;20.70;81.10
64888;DHT22;51386;53.082;8.816;2023-08-17T03:27:30;20.70;80.80
64888;DHT22;51386;53.082;8.816;2023-08-17T03:29:57;20.70;80.80
64888;DHT22;51386;53.082;8.816;2023-08-17T03:32:24;20.70;80.80
64888;DHT22;51386;53.082;8.816;2023-08-17T03:34:51;20.70;80.80
64888;DHT22;51386;53.082;8.816;2023-08-17T03:37:18;20.70;80.90
64888;DHT22;51386;53.082;8.816;2023-08-17T03:39:47;20.70;80.90
64888;DHT22;51386;53.082;8.816;2023-08-17T03:42:14;20.70;80.90
64888;DHT22;51386;53.082;8.816;2023-08-17T03:44:41;20.70;81.00
64888;DHT22;51386;53.082;8.816;2023-08-17T03:47:08;20.80;80.90
64888;DHT22;51386;53.082;8.816;2023-08-17T03:49:35;20.80;81.00
64888;DHT22;51386;53.082;8.816;2023-08-17T03:52:02;20.80;80.90
64888;DHT22;51386;53.082;8.816;2023-08-17T03:54:29;20.80;80.90
64888;DHT22;51386;53.082;8.816;2023-08-17T03:56:58;20.90;80.90
64888;DHT22;51386;53.082;8.816;2023-08-17T03:59:25;20.90;80.70
64888;DHT22;51386;53.082;8.816;2023-08-17T04:01:52;21.00;80.50
64888;DHT22;51386;53.082;8.816;2023-08-17T04:04:19;21.00;80.30
64888;DHT22;51386;53.082;8.816;2023-08-17T04:06:46;21.00;80.40
64888;DHT22;51386;53.082;8.816;2023-08-17T04:09:13;20.90;80.40
64888;DHT22;51386;53.082;8.816;2023-08-17T04:11:40;21.00;80.50
64888;DHT22;51386;53.082;8.816;2023-08-17T04:14:08;21.00;80.50
64888;DHT22;51386;53.082;8.816;2023-08-17T04:16:35;20.90;80.60
64888;DHT22;51386;53.082;8.816;2023-08-17T04:19:03;21.00;80.70
64888;DHT22;51386;53.082;8.816;2023-08-17T04:21:30;21.00;80.70
64888;DHT22;51386;53.082;8.816;2023-08-17T04:23:57;21.00;80.70
64888;DHT22;51386;53.082;8.816;2023-08-17T04:26:24;21.00;80.70
64888;DHT22;51386;53.082;8.816;2023-08-17T04:28:51;21.00;80.70
64888;DHT22;51386;53.082;8.816;2023-08-17T04:31:20;21.00;80.60
64888;DHT22;51386;53.082;8.816;2023-08-17T04:33:47;21.00;80.70
64888;DHT22;51386;53.082;8.816;2023-08-17T04:36:14;21.00;80.70
64888;DHT22;51386;53.082;8.816;2023-08-17T04:38:41;21.00;80.70
64888;DHT22;51386;53.082;8.816;2023-08-17T04:41:08;21.00;80.90
64888;DHT22;51386;53.082;8.816;2023-08-17T04:43:35;21.00;81.00
64888;DHT22;51386;53.082;8.816;2023-08-17T04:46:02;21.00;81.00
64888;DHT22;51386;53.082;8.816;2023-08-17T04:48:31;21.00;81.20
64888;DHT22;51386;53.082;8.816;2023-08-17T04:50:58;21.00;81.00
64888;DHT22;51386;53.082;8.816;2023-08-17T04:53:25;21.00;81.20
64888;DHT22;51386;53.082;8.816;2023-08-17T04:55:52;21.00;81.40
64888;DHT22;51386;53.082;8.816;2023-08-17T04:58:19;21.00;81.80
64888;DHT22;51386;53.082;8.816;2023-08-17T05:00:46;21.00;82.70
64888;DHT22;51386;53.082;8.816;2023-08-17T05:03:14;21.00;82.00
64888;DHT22;51386;53.082;8.816;2023-08-17T05:06:00;21.00;81.90
64888;DHT22;51386;53.082;8.816;2023-08-17T05:08:27;21.00;81.90
64888;DHT22;51386;53.082;8.816;2023-08-17T05:10:54;21.00;82.00
64888;DHT22;51386;53.082;8.816;2023-08-17T05:13:21;21.00;81.90
64888;DHT22;51386;53.082;8.816;2023-08-17T05:15:48;21.00;81.80
64888;DHT22;51386;53.082;8.816;2023-08-17T05:18:15;21.00;81.80
64888;DHT22;51386;53.082;8.816;2023-08-17T05:20:42;21.00;81.60
64888;DHT22;51386;53.082;8.816;2023-08-17T05:23:11;21.00;81.50
64888;DHT22;51386;53.082;8.816;2023-08-17T05:25:38;21.00;81.60
64888;DHT22;51386;53.082;8.816;2023-08-17T05:28:05;21.00;81.60
64888;DHT22;51386;53.082;8.816;2023-08-17T05:30:32;21.00;81.70
64888;DHT22;51386;53.082;8.816;2023-08-17T05:32:59;21.00;81.90
64888;DHT22;51386;53.082;8.816;2023-08-17T05:35:26;21.00;81.90
64888;DHT22;51386;53.082;8.816;2023-08-17T05:37:54;20.90;82.00
64888;DHT22;51386;53.082;8.816;2023-08-17T05:40:22;21.00;82.10
64888;DHT22;51386;53.082;8.816;2023-08-17T05:42:49;21.00;82.30
64888;DHT22;51386;53.082;8.816;2023-08-17T05:45:16;21.00;82.40
64888;DHT22;51386;53.082;8.816;2023-08-17T05:47:43;21.00;82.30
64888;DHT22;51386;53.082;8.816;2023-08-17T05:50:12;21.10;82.20
64888;DHT22;51386;53.082;8.816;2023-08-17T05:52:41;21.10;82.10
64888;DHT22;51386;53.082;8.816;2023-08-17T05:55:08;21.10;81.90
64888;DHT22;51386;53.082;8.816;2023-08-17T05:57:37;21.20;81.90
64888;DHT22;51386;53.082;8.816;2023-08-17T06:00:05;21.20;82.80
64888;DHT22;51386;53.082;8.816;2023-08-17T06:02:35;21.20;81.90
64888;DHT22;51386;53.082;8.816;2023-08-17T06:05:02;21.20;81.80
64888;DHT22;51386;53.082;8.816;2023-08-17T06:07:30;21.20;81.90
64888;DHT22;51386;53.082;8.816;2023-08-17T06:09:57;21.20;82.10
64888;DHT22;51386;53.082;8.816;2023-08-17T06:12:24;21.20;82.20
64888;DHT22;51386;53.082;8.816;2023-08-17T06:14:52;21.10;82.20
64888;DHT22;51386;53.082;8.816;2023-08-17T06:17:19;21.10;82.40
64888;DHT22;51386;53.082;8.816;2023-08-17T06:19:46;21.20;82.50
64888;DHT22;51386;53.082;8.816;2023-08-17T06:22:14;21.20;82.60
64888;DHT22;51386;53.082;8.816;2023-08-17T06:24:41;21.10;82.80
64888;DHT22;51386;53.082;8.816;2023-08-17T06:27:08;21.10;82.90
64888;DHT22;51386;53.082;8.816;2023-08-17T06:29:35;21.10;82.90
64888;DHT22;51386;53.082;8.816;2023-08-17T06:32:04;21.10;83.10
64888;DHT22;51386;53.082;8.816;2023-08-17T06:34:31;21.10;83.20
64888;DHT22;51386;53.082;8.816;2023-08-17T06:37:02;21.10;83.10
64888;DHT22;51386;53.082;8.816;2023-08-17T06:39:30;21.10;83.20
64888;DHT22;51386;53.082;8.816;2023-08-17T06:41:57;21.20;83.20
64888;DHT22;51386;53.082;8.816;2023-08-17T06:44:24;21.20;83.30
64888;DHT22;51386;53.082;8.816;2023-08-17T06:46:51;21.30;83.50
64888;DHT22;51386;53.082;8.816;2023-08-17T06:49:20;21.30;83.10
64888;DHT22;51386;53.082;8.816;2023-08-17T06:51:47;21.30;83.00
64888;DHT22;51386;53.082;8.816;2023-08-17T06:54:14;21.30;83.00
64888;DHT22;51386;53.082;8.816;2023-08-17T06:56:42;21.30;83.00
64888;DHT22;51386;53.082;8.816;2023-08-17T06:59:09;21.30;83.10
64888;DHT22;51386;53.082;8.816;2023-08-17T07:01:36;21.30;83.10
64888;DHT22;51386;53.082;8.816;2023-08-17T07:04:04;21.30;83.10
64888;DHT22;51386;53.082;8.816;2023-08-17T07:06:32;21.30;83.20
64888;DHT22;51386;53.082;8.816;2023-08-17T07:09:00;21.40;83.20
64888;DHT22;51386;53.082;8.816;2023-08-17T07:11:27;21.40;83.10
64888;DHT22;51386;53.082;8.816;2023-08-17T07:13:54;21.40;82.90
64888;DHT22;51386;53.082;8.816;2023-08-17T07:16:21;21.50;82.90
64888;DHT22;51386;53.082;8.816;2023-08-17T07:18:48;21.50;82.90
64888;DHT22;51386;53.082;8.816;2023-08-17T07:21:15;21.50;82.70
64888;DHT22;51386;53.082;8.816;2023-08-17T07:23:44;21.50;82.70
64888;DHT22;51386;53.082;8.816;2023-08-17T07:26:12;21.50;82.60
64888;DHT22;51386;53.082;8.816;2023-08-17T07:28:40;21.50;82.60
64888;DHT22;51386;53.082;8.816;2023-08-17T07:31:07;21.50;82.50
64888;DHT22;51386;53.082;8.816;2023-08-17T07:33:34;21.50;82.60
64888;DHT22;51386;53.082;8.816;2023-08-17T07:36:01;21.50;82.50
64888;DHT22;51386;53.082;8.816;2023-08-17T07:38:28;21.50;82.50
64888;DHT22;51386;53.082;8.816;2023-08-17T07:40:57;21.50;82.10
64888;DHT22;51386;53.082;8.816;2023-08-17T07:43:24;21.50;82.30
64888;DHT22;51386;53.082;8.816;2023-08-17T07:45:54;21.50;82.30
64888;DHT22;51386;53.082;8.816;2023-08-17T07:48:22;21.40;82.10
64888;DHT22;51386;53.082;8.816;2023-08-17T07:50:49;21.40;82.20
64888;DHT22;51386;53.082;8.816;2023-08-17T07:53:17;21.40;82.20
64888;DHT22;51386;53.082;8.816;2023-08-17T07:55:45;21.40;82.00
64888;DHT22;51386;53.082;8.816;2023-08-17T07:58:15;21.40;82.00
64888;DHT22;51386;53.082;8.816;2023-08-17T08:00:42;21.40;82.00
64888;DHT22;51386;53.082;8.816;2023-08-17T08:03:09;21.40;81.90
64888;DHT22;51386;53.082;8.816;2023-08-17T08:05:36;21.40;81.50
64888;DHT22;51386;53.082;8.816;2023-08-17T08:08:04;21.40;81.40
64888;DHT22;51386;53.082;8.816;2023-08-17T08:10:32;21.40;81.60
64888;DHT22;51386;53.082;8.816;2023-08-17T08:12:59;21.40;81.60
64888;DHT22;51386;53.082;8.816;2023-08-17T08:15:28;21.40;81.60
64888;DHT22;51386;53.082;8.816;2023-08-17T08:17:55;21.40;81.60
64888;DHT22;51386;53.082;8.816;2023-08-17T08:20:22;21.40;81.20
64888;DHT22;51386;53.082;8.816;2023-08-17T08:22:49;21.50;81.30
64888;DHT22;51386;53.082;8.816;2023-08-17T08:25:17;21.50;81.20
64888;DHT22;51386;53.082;8.816;2023-08-17T08:27:44;21.50;81.10
64888;DHT22;51386;53.082;8.816;2023-08-17T08:30:11;21.60;81.20
64888;DHT22;51386;53.082;8.816;2023-08-17T08:32:40;21.60;81.10
64888;DHT22;51386;53.082;8.816;2023-08-17T08:35:08;21.60;81.20
64888;DHT22;51386;53.082;8.816;2023-08-17T08:37:35;21.60;81.30
64888;DHT22;51386;53.082;8.816;2023-08-17T08:40:02;21.60;81.40
64888;DHT22;51386;53.082;8.816;2023-08-17T08:42:31;21.60;81.70
64888;DHT22;51386;53.082;8.816;2023-08-17T08:44:58;21.60;81.50
64888;DHT22;51386;53.082;8.816;2023-08-17T08:47:25;21.70;81.50
64888;DHT22;51386;53.082;8.816;2023-08-17T08:49:59;21.60;81.10
64888;DHT22;51386;53.082;8.816;2023-08-17T08:52:34;21.70;80.90
64888;DHT22;51386;53.082;8.816;2023-08-17T08:55:10;21.70;80.70
64888;DHT22;51386;53.082;8.816;2023-08-17T08:57:42;21.70;80.90
64888;DHT22;51386;53.082;8.816;2023-08-17T09:00:12;21.60;81.00
64888;DHT22;51386;53.082;8.816;2023-08-17T09:02:41;21.60;81.20
64888;DHT22;51386;53.082;8.816;2023-08-17T09:05:11;21.60;81.40
64888;DHT22;51386;53.082;8.816;2023-08-17T09:07:38;21.60;81.60
64888;DHT22;51386;53.082;8.816;2023-08-17T09:10:06;21.60;81.40
64888;DHT22;51386;53.082;8.816;2023-08-17T09:12:36;21.60;81.30
64888;DHT22;51386;53.082;8.816;2023-08-17T09:15:07;21.60;81.10
64888;DHT22;51386;53.082;8.816;2023-08-17T09:17:35;21.50;80.70
64888;DHT22;51386;53.082;8.816;2023-08-17T09:20:03;21.60;80.90
64888;DHT22;51386;53.082;8.816;2023-08-17T09:22:39;21.50;80.70
64888;DHT22;51386;53.082;8.816;2023-08-17T09:25:08;21.50;80.60
64888;DHT22;51386;53.082;8.816;2023-08-17T09:27:37;21.50;80.10
64888;DHT22;51386;53.082;8.816;2023-08-17T09:30:06;21.40;79.10
64888;DHT22;51386;53.082;8.816;2023-08-17T09:32:35;21.30;76.90
64888;DHT22;51386;53.082;8.816;2023-08-17T09:35:03;21.30;76.60
64888;DHT22;51386;53.082;8.816;2023-08-17T09:37:32;21.20;76.80
64888;DHT22;51386;53.082;8.816;2023-08-17T09:40:01;21.20;77.10
64888;DHT22;51386;53.082;8.816;2023-08-17T09:42:30;21.10;77.50
64888;DHT22;51386;53.082;8.816;2023-08-17T09:45:01;21.10;77.50
64888;DHT22;51386;53.082;8.816;2023-08-17T09:47:30;21.10;78.20
64888;DHT22;51386;53.082;8.816;2023-08-17T09:49:57;21.10;78.20
64888;DHT22;51386;53.082;8.816;2023-08-17T09:52:25;21.10;77.90
64888;DHT22;51386;53.082;8.816;2023-08-17T09:54:52;21.20;77.70
64888;DHT22;51386;53.082;8.816;2023-08-17T09:57:23;21.20;77.80
64888;DHT22;51386;53.082;8.816;2023-08-17T09:59:51;21.20;77.80
64888;DHT22;51386;53.082;8.816;2023-08-17T10:02:23;21.30;78.00
64888;DHT22;51386;53.082;8.816;2023-08-17T10:04:53;21.30;78.20
64888;DHT22;51386;53.082;8.816;2023-08-17T10:07:24;21.30;78.30
64888;DHT22;51386;53.082;8.816;2023-08-17T10:10:02;21.30;78.40
64888;DHT22;51386;53.082;8.816;2023-08-17T10:12:36;21.30;78.70
64888;DHT22;51386;53.082;8.816;2023-08-17T10:15:11;21.40;78.90
64888;DHT22;51386;53.082;8.816;2023-08-17T10:17:54;21.40;78.90
64888;DHT22;51386;53.082;8.816;2023-08-17T10:20:30;21.50;79.20
64888;DHT22;51386;53.082;8.816;2023-08-17T10:23:07;21.60;79.30
64888;DHT22;51386;53.082;8.816;2023-08-17T10:25:39;21.60;79.40
64888;DHT22;51386;53.082;8.816;2023-08-17T10:28:11;21.70;79.50
64888;DHT22;51386;53.082;8.816;2023-08-17T10:30:39;21.70;79.60
64888;DHT22;51386;53.082;8.816;2023-08-17T10:33:06;21.70;79.40
64888;DHT22;51386;53.082;8.816;2023-08-17T10:35:35;21.70;79.30
64888;DHT22;51386;53.082;8.816;2023-08-17T10:38:04;21.80;79.30
64888;DHT22;51386;53.082;8.816;2023-08-17T10:40:38;21.80;79.20
64888;DHT22;51386;53.082;8.816;2023-08-17T10:43:08;21.90;78.90
64888;DHT22;51386;53.082;8.816;2023-08-17T10:45:38;21.90;78.70
64888;DHT22;51386;53.082;8.816;2023-08-17T10:48:25;22.00;78.50
64888;DHT22;51386;53.082;8.816;2023-08-17T10:51:04;22.00;77.80
64888;DHT22;51386;53.082;8.816;2023-08-17T10:53:35;22.00;77.70
64888;DHT22;51386;53.082;8.816;2023-08-17T10:56:07;22.00;77.50
64888;DHT22;51386;53.082;8.816;2023-08-17T10:58:37;22.00;77.70
64888;DHT22;51386;53.082;8.816;2023-08-17T11:01:04;22.00;77.80
64888;DHT22;51386;53.082;8.816;2023-08-17T11:03:31;21.90;77.70
64888;DHT22;51386;53.082;8.816;2023-08-17T11:06:14;21.90;77.60
64888;DHT22;51386;53.082;8.816;2023-08-17T11:08:54;21.90;77.60
64888;DHT22;51386;53.082;8.816;2023-08-17T11:11:23;21.80;77.30
64888;DHT22;51386;53.082;8.816;2023-08-17T11:13:53;21.80;77.50
64888;DHT22;51386;53.082;8.816;2023-08-17T11:16:23;21.90;77.80
64888;DHT22;51386;53.082;8.816;2023-08-17T11:18:51;21.90;78.20
64888;DHT22;51386;53.082;8.816;2023-08-17T11:21:19;21.80;78.20
64888;DHT22;51386;53.082;8.816;2023-08-17T11:23:47;21.90;78.60
64888;DHT22;51386;53.082;8.816;2023-08-17T11:26:16;21.90;78.60
64888;DHT22;51386;53.082;8.816;2023-08-17T11:28:43;21.90;78.50
64888;DHT22;51386;53.082;8.816;2023-08-17T11:31:13;22.00;78.50
64888;DHT22;51386;53.082;8.816;2023-08-17T11:33:43;22.10;78.60
64888;DHT22;51386;53.082;8.816;2023-08-17T11:36:12;22.10;78.60
64888;DHT22;51386;53.082;8.816;2023-08-17T11:38:41;22.10;78.50
64888;DHT22;51386;53.082;8.816;2023-08-17T11:41:09;22.10;78.60
64888;DHT22;51386;53.082;8.816;2023-08-17T11:43:45;22.10;78.80
64888;DHT22;51386;53.082;8.816;2023-08-17T11:46:15;22.10;79.00
64888;DHT22;51386;53.082;8.816;2023-08-17T11:48:42;22.20;79.10
64888;DHT22;51386;53.082;8.816;2023-08-17T11:51:09;22.20;79.00
64888;DHT22;51386;53.082;8.816;2023-08-17T11:53:39;22.30;79.00
64888;DHT22;51386;53.082;8.816;2023-08-17T11:56:07;22.30;79.00
64888;DHT22;51386;53.082;8.816;2023-08-17T11:58:40;22.40;78.60
64888;DHT22;51386;53.082;8.816;2023-08-17T12:01:10;22.50;78.50
64888;DHT22;51386;53.082;8.816;2023-08-17T12:03:40;22.50;78.10
64888;DHT22;51386;53.082;8.816;2023-08-17T12:06:09;22.60;77.90
64888;DHT22;51386;53.082;8.816;2023-08-17T12:08:37;22.60;77.80
64888;DHT22;51386;53.082;8.816;2023-08-17T12:11:04;22.50;77.70
64888;DHT22;51386;53.082;8.816;2023-08-17T12:13:33;22.50;77.80
64888;DHT22;51386;53.082;8.816;2023-08-17T12:16:01;22.40;77.80
64888;DHT22;51386;53.082;8.816;2023-08-17T12:18:28;22.30;78.70
64888;DHT22;51386;53.082;8.816;2023-08-17T12:20:59;22.30;78.00
64888;DHT22;51386;53.082;8.816;2023-08-17T12:23:27;22.10;78.00
64888;DHT22;51386;53.082;8.816;2023-08-17T12:25:54;22.10;78.30
64888;DHT22;51386;53.082;8.816;2023-08-17T12:28:22;22.00;78.50
64888;DHT22;51386;53.082;8.816;2023-08-17T12:30:57;21.90;78.80
64888;DHT22;51386;53.082;8.816;2023-08-17T12:33:26;21.90;78.90
64888;DHT22;51386;53.082;8.816;2023-08-17T12:35:53;21.90;79.20
64888;DHT22;51386;53.082;8.816;2023-08-17T12:38:21;21.80;79.50
64888;DHT22;51386;53.082;8.816;2023-08-17T12:40:50;21.80;79.80
64888;DHT22;51386;53.082;8.816;2023-08-17T12:43:17;21.70;79.90
64888;DHT22;51386;53.082;8.816;2023-08-17T12:45:44;21.70;80.70
64888;DHT22;51386;53.082;8.816;2023-08-17T12:48:11;21.60;80.60
64888;DHT22;51386;53.082;8.816;2023-08-17T12:50:38;21.60;80.80
64888;DHT22;51386;53.082;8.816;2023-08-17T12:53:09;21.50;80.90
64888;DHT22;51386;53.082;8.816;2023-08-17T12:55:38;21.50;81.20
64888;DHT22;51386;53.082;8.816;2023-08-17T12:58:07;21.50;81.20
64888;DHT22;51386;53.082;8.816;2023-08-17T13:00:36;21.50;81.20
64888;DHT22;51386;53.082;8.816;2023-08-17T13:03:04;21.50;81.20
64888;DHT22;51386;53.082;8.816;2023-08-17T13:05:32;21.50;81.00
64888;DHT22;51386;53.082;8.816;2023-08-17T13:08:02;21.50;80.90
64888;DHT22;51386;53.082;8.816;2023-08-17T13:10:30;21.50;80.60
64888;DHT22;51386;53.082;8.816;2023-08-17T13:12:58;21.50;80.60
64888;DHT22;51386;53.082;8.816;2023-08-17T13:15:26;21.50;80.60
64888;DHT22;51386;53.082;8.816;2023-08-17T13:17:53;21.50;80.80
64888;DHT22;51386;53.082;8.816;2023-08-17T13:20:21;21.40;80.70
64888;DHT22;51386;53.082;8.816;2023-08-17T13:22:48;21.40;81.10
64888;DHT22;51386;53.082;8.816;2023-08-17T13:25:16;21.40;81.20
64888;DHT22;51386;53.082;8.816;2023-08-17T13:27:43;21.40;81.20
64888;DHT22;51386;53.082;8.816;2023-08-17T13:30:12;21.40;80.70
64888;DHT22;51386;53.082;8.816;2023-08-17T13:32:39;21.40;80.40
64888;DHT22;51386;53.082;8.816;2023-08-17T13:35:10;21.40;80.10
64888;DHT22;51386;53.082;8.816;2023-08-17T13:37:37;21.40;79.60
64888;DHT22;51386;53.082;8.816;2023-08-17T13:40:05;21.30;79.40
64888;DHT22;51386;53.082;8.816;2023-08-17T13:42:34;21.30;78.20
64888;DHT22;51386;53.082;8.816;2023-08-17T13:45:01;21.30;78.20
64888;DHT22;51386;53.082;8.816;2023-08-17T13:47:29;21.20;78.50
64888;DHT22;51386;53.082;8.816;2023-08-17T13:49:56;21.20;78.70
64888;DHT22;51386;53.082;8.816;2023-08-17T13:52:25;21.20;78.10
64888;DHT22;51386;53.082;8.816;2023-08-17T13:54:53;21.20;78.50
64888;DHT22;51386;53.082;8.816;2023-08-17T13:57:20;21.10;78.10
64888;DHT22;51386;53.082;8.816;2023-08-17T13:59:47;21.10;77.50
64888;DHT22;51386;53.082;8.816;2023-08-17T14:02:14;21.10;77.40
64888;DHT22;51386;53.082;8.816;2023-08-17T14:04:42;21.10;76.60
64888;DHT22;51386;53.082;8.816;2023-08-17T14:07:09;21.10;77.00
64888;DHT22;51386;53.082;8.816;2023-08-17T14:09:36;21.10;77.00
64888;DHT22;51386;53.082;8.816;2023-08-17T14:12:04;21.10;77.10
64888;DHT22;51386;53.082;8.816;2023-08-17T14:14:31;21.10;77.10
64888;DHT22;51386;53.082;8.816;2023-08-17T14:16:59;21.10;76.60
64888;DHT22;51386;53.082;8.816;2023-08-17T14:19:26;21.20;77.10
64888;DHT22;51386;53.082;8.816;2023-08-17T14:21:55;21.20;77.00
64888;DHT22;51386;53.082;8.816;2023-08-17T14:24:22;21.30;76.80
64888;DHT22;51386;53.082;8.816;2023-08-17T14:26:49;21.30;76.20
64888;DHT22;51386;53.082;8.816;2023-08-17T14:29:17;21.30;76.10
64888;DHT22;51386;53.082;8.816;2023-08-17T14:31:43;21.40;76.00
64888;DHT22;51386;53.082;8.816;2023-08-17T14:34:11;21.30;75.60
64888;DHT22;51386;53.082;8.816;2023-08-17T14:36:38;21.40;75.20
64888;DHT22;51386;53.082;8.816;2023-08-17T14:39:06;21.40;75.10
64888;DHT22;51386;53.082;8.816;2023-08-17T14:41:33;21.30;75.20
64888;DHT22;51386;53.082;8.816;2023-08-17T14:44:00;21.30;75.60
64888;DHT22;51386;53.082;8.816;2023-08-17T14:46:29;21.30;75.70
64888;DHT22;51386;53.082;8.816;2023-08-17T14:48:57;21.20;75.50
64888;DHT22;51386;53.082;8.816;2023-08-17T14:51:25;21.10;75.60
64888;DHT22;51386;53.082;8.816;2023-08-17T14:53:57;21.10;75.80
64888;DHT22;51386;53.082;8.816;2023-08-17T14:56:25;21.10;76.20
64888;DHT22;51386;53.082;8.816;2023-08-17T14:58:52;21.10;76.40
64888;DHT22;51386;53.082;8.816;2023-08-17T15:01:20;21.00;76.60
64888;DHT22;51386;53.082;8.816;2023-08-17T15:03:47;21.00;77.40
64888;DHT22;51386;53.082;8.816;2023-08-17T15:06:14;21.00;76.70
64888;DHT22;51386;53.082;8.816;2023-08-17T15:08:59;21.00;76.80
64888;DHT22;51386;53.082;8.816;2023-08-17T15:11:27;21.00;76.80
64888;DHT22;51386;53.082;8.816;2023-08-17T15:13:54;21.00;77.10
64888;DHT22;51386;53.082;8.816;2023-08-17T15:16:21;21.00;77.10
64888;DHT22;51386;53.082;8.816;2023-08-17T15:18:53;21.00;77.30
64888;DHT22;51386;53.082;8.816;2023-08-17T15:21:21;21.00;77.80
64888;DHT22;51386;53.082;8.816;2023-08-17T15:23:48;21.00;77.70
64888;DHT22;51386;53.082;8.816;2023-08-17T15:26:15;21.10;77.80
64888;DHT22;51386;53.082;8.816;2023-08-17T15:28:44;21.00;77.50
64888;DHT22;51386;53.082;8.816;2023-08-17T15:31:11;21.10;77.50
64888;DHT22;51386;53.082;8.816;2023-08-17T15:33:43;21.20;77.30
64888;DHT22;51386;53.082;8.816;2023-08-17T15:36:10;21.20;77.20
64888;DHT22;51386;53.082;8.816;2023-08-17T15:38:37;21.10;77.20